N737QF KVNY-KEMT
Flight info
| Callsign | N737QF |
|---|---|
| Flight time | 0h 16m |
| Altitude | |
| Route | |
| Aircraft | C172/L-VGD/C |
Departure
| Time | 2026-04-26 17:12 |
|---|---|
| Airport | Van Nuys Airport (KVNY) |
Arrival
| Time | 2026-04-26 17:28 |
|---|---|
| Airport | San Gabriel Valley Airport (KEMT) |
| Time | Latitude | Longitude | Altitude | Speed | Heading |
|---|---|---|---|---|---|
| 2026-04-26 17:06 | 34.21726 | -118.49325 | 805 ft | 0 kts | 99° |
| 2026-04-26 17:07 | 34.21724 | -118.49313 | 805 ft | 5 kts | 99° |
| 2026-04-26 17:07 | 34.21726 | -118.49237 | 805 ft | 13 kts | 44° |
| 2026-04-26 17:07 | 34.21835 | -118.49240 | 805 ft | 17 kts | 349° |
| 2026-04-26 17:07 | 34.21897 | -118.49243 | 805 ft | 1 kts | 50° |
| 2026-04-26 17:08 | 34.21903 | -118.49217 | 805 ft | 0 kts | 99° |
| 2026-04-26 17:11 | 34.21893 | -118.49175 | 805 ft | 11 kts | 114° |
| 2026-04-26 17:11 | 34.21827 | -118.49116 | 805 ft | 10 kts | 174° |
| 2026-04-26 17:11 | 34.21524 | -118.49092 | 805 ft | 72 kts | 177° |
| 2026-04-26 17:11 | 34.20988 | -118.49040 | 1040 ft | 78 kts | 179° |
| 2026-04-26 17:12 | 34.19941 | -118.48852 | 1572 ft | 78 kts | 176° |
| 2026-04-26 17:12 | 34.19421 | -118.48723 | 1862 ft | 76 kts | 171° |
| 2026-04-26 17:13 | 34.18390 | -118.48470 | 2367 ft | 77 kts | 170° |
| 2026-04-26 17:13 | 34.17955 | -118.48103 | 2620 ft | 81 kts | 126° |
| 2026-04-26 17:13 | 34.17696 | -118.46764 | 3113 ft | 82 kts | 103° |
| 2026-04-26 17:14 | 34.17614 | -118.46089 | 3349 ft | 81 kts | 103° |
| 2026-04-26 17:14 | 34.17426 | -118.44551 | 3514 ft | 104 kts | 104° |
| 2026-04-26 17:14 | 34.17312 | -118.43665 | 3513 ft | 108 kts | 104° |
| 2026-04-26 17:15 | 34.17075 | -118.41835 | 3513 ft | 111 kts | 104° |
| 2026-04-26 17:15 | 34.16955 | -118.40893 | 3513 ft | 112 kts | 104° |
| 2026-04-26 17:15 | 34.16837 | -118.39958 | 3513 ft | 112 kts | 104° |
| 2026-04-26 17:16 | 34.16721 | -118.39025 | 3514 ft | 113 kts | 104° |
| 2026-04-26 17:16 | 34.16605 | -118.38081 | 3514 ft | 113 kts | 104° |
| 2026-04-26 17:16 | 34.16493 | -118.37149 | 3514 ft | 112 kts | 104° |
| 2026-04-26 17:16 | 34.16382 | -118.36212 | 3515 ft | 112 kts | 104° |
| 2026-04-26 17:17 | 34.16273 | -118.35278 | 3515 ft | 112 kts | 103° |
| 2026-04-26 17:17 | 34.16166 | -118.34339 | 3515 ft | 112 kts | 103° |
| 2026-04-26 17:17 | 34.16061 | -118.33409 | 3516 ft | 111 kts | 103° |
| 2026-04-26 17:17 | 34.15958 | -118.32485 | 3516 ft | 111 kts | 103° |
| 2026-04-26 17:18 | 34.15857 | -118.31561 | 3516 ft | 111 kts | 103° |
| 2026-04-26 17:18 | 34.15758 | -118.30642 | 3516 ft | 111 kts | 103° |
| 2026-04-26 17:18 | 34.15656 | -118.29712 | 3516 ft | 111 kts | 104° |
| 2026-04-26 17:18 | 34.15507 | -118.28793 | 3460 ft | 115 kts | 108° |
| 2026-04-26 17:19 | 34.15140 | -118.26877 | 3197 ft | 113 kts | 108° |
| 2026-04-26 17:19 | 34.14964 | -118.25953 | 3118 ft | 111 kts | 108° |
| 2026-04-26 17:19 | 34.14790 | -118.25040 | 3040 ft | 110 kts | 108° |
| 2026-04-26 17:20 | 34.14616 | -118.24140 | 2963 ft | 110 kts | 108° |
| 2026-04-26 17:20 | 34.14501 | -118.23543 | 2912 ft | 110 kts | 108° |
| 2026-04-26 17:20 | 34.14264 | -118.22334 | 2809 ft | 110 kts | 108° |
| 2026-04-26 17:20 | 34.14086 | -118.21433 | 2732 ft | 110 kts | 108° |
| 2026-04-26 17:21 | 34.13905 | -118.20531 | 2655 ft | 111 kts | 108° |
| 2026-04-26 17:21 | 34.13723 | -118.19630 | 2579 ft | 111 kts | 108° |
| 2026-04-26 17:21 | 34.13535 | -118.18715 | 2502 ft | 111 kts | 108° |
| 2026-04-26 17:21 | 34.13348 | -118.17813 | 2426 ft | 111 kts | 108° |
| 2026-04-26 17:22 | 34.13157 | -118.16898 | 2349 ft | 112 kts | 108° |
| 2026-04-26 17:22 | 34.12963 | -118.15987 | 2273 ft | 112 kts | 108° |
| 2026-04-26 17:22 | 34.12767 | -118.15071 | 2196 ft | 112 kts | 108° |
| 2026-04-26 17:22 | 34.12570 | -118.14166 | 2121 ft | 112 kts | 108° |
| 2026-04-26 17:23 | 34.12340 | -118.13263 | 2045 ft | 112 kts | 112° |
| 2026-04-26 17:23 | 34.12015 | -118.12410 | 1968 ft | 111 kts | 120° |
| 2026-04-26 17:23 | 34.11716 | -118.11533 | 1908 ft | 110 kts | 116° |
| 2026-04-26 17:23 | 34.11330 | -118.10736 | 1824 ft | 108 kts | 134° |
| 2026-04-26 17:24 | 34.10859 | -118.10081 | 1688 ft | 105 kts | 134° |
| 2026-04-26 17:24 | 34.10395 | -118.09405 | 1597 ft | 100 kts | 133° |
| 2026-04-26 17:24 | 34.09971 | -118.08754 | 1497 ft | 103 kts | 127° |
| 2026-04-26 17:24 | 34.09660 | -118.07954 | 1375 ft | 104 kts | 113° |
| 2026-04-26 17:25 | 34.09470 | -118.07127 | 1312 ft | 104 kts | 99° |
| 2026-04-26 17:25 | 34.09541 | -118.06243 | 1316 ft | 105 kts | 70° |
| 2026-04-26 17:25 | 34.09986 | -118.05562 | 1305 ft | 105 kts | 31° |
| 2026-04-26 17:25 | 34.10656 | -118.05302 | 1346 ft | 100 kts | 5° |
| 2026-04-26 17:26 | 34.11363 | -118.05182 | 1284 ft | 106 kts | 7° |
| 2026-04-26 17:26 | 34.12082 | -118.04895 | 1164 ft | 110 kts | 29° |
| 2026-04-26 17:26 | 34.12458 | -118.04159 | 1040 ft | 97 kts | 84° |
| 2026-04-26 17:26 | 34.12290 | -118.03435 | 982 ft | 84 kts | 125° |
| 2026-04-26 17:27 | 34.11908 | -118.02903 | 926 ft | 84 kts | 143° |
| 2026-04-26 17:27 | 34.11423 | -118.02531 | 882 ft | 81 kts | 158° |
| 2026-04-26 17:27 | 34.10887 | -118.02322 | 747 ft | 78 kts | 175° |
| 2026-04-26 17:27 | 34.10378 | -118.02444 | 609 ft | 73 kts | 205° |
| 2026-04-26 17:28 | 34.09961 | -118.02715 | 520 ft | 65 kts | 213° |
| 2026-04-26 17:28 | 34.09537 | -118.02960 | 448 ft | 67 kts | 205° |
| 2026-04-26 17:28 | 34.09111 | -118.03197 | 337 ft | 65 kts | 208° |
| 2026-04-26 17:28 | 34.08760 | -118.03399 | 287 ft | 44 kts | 203° |
| 2026-04-26 17:29 | 34.08337 | -118.03652 | 313 ft | 87 kts | 209° |
| 2026-04-26 17:29 | 34.07956 | -118.03887 | 406 ft | 96 kts | 208° |
| 2026-04-26 17:29 | 34.07751 | -118.04005 | 505 ft | 95 kts | 207° |